createdAt,value
2019-03-01T00:02:13.971Z,8.89
2019-03-01T00:05:31.714Z,8.91
2019-03-01T00:08:10.502Z,8.97
2019-03-01T00:10:52.807Z,8.97
2019-03-01T00:14:06.869Z,8.96
2019-03-01T00:17:09.457Z,8.96
2019-03-01T00:19:56.758Z,8.91
2019-03-01T00:22:52.422Z,8.96
2019-03-01T00:26:08.677Z,8.90
2019-03-01T00:29:11.758Z,8.92
2019-03-01T00:32:25.979Z,8.88
2019-03-01T00:35:30.232Z,8.88
2019-03-01T00:38:38.779Z,8.86
2019-03-01T00:41:17.771Z,8.80
2019-03-01T00:44:18.173Z,8.80
2019-03-01T00:46:46.166Z,8.61
2019-03-01T00:49:14.074Z,8.51
2019-03-01T00:51:42.007Z,8.48
2019-03-01T00:54:10.066Z,8.34
2019-03-01T00:56:37.913Z,8.25
2019-03-01T00:59:06.472Z,8.10
2019-03-01T01:01:34.507Z,8.13
2019-03-01T01:04:02.385Z,8.18
2019-03-01T01:06:30.913Z,8.20
2019-03-01T01:08:58.757Z,8.13
2019-03-01T01:11:26.563Z,8.14
2019-03-01T01:13:55.010Z,8.20
2019-03-01T01:16:22.918Z,8.01
2019-03-01T01:18:50.805Z,7.86
2019-03-01T01:21:18.704Z,7.98
2019-03-01T01:23:46.652Z,8.10
2019-03-01T01:26:14.692Z,8.03
2019-03-01T01:28:42.626Z,8.11
2019-03-01T01:31:10.563Z,7.82
2019-03-01T01:33:38.354Z,7.97
2019-03-01T01:36:06.365Z,8.03
2019-03-01T01:38:34.423Z,8.08
2019-03-01T01:41:02.330Z,8.13
2019-03-01T01:43:30.893Z,8.17
2019-03-01T01:45:58.927Z,8.18
2019-03-01T01:48:26.809Z,8.16
2019-03-01T01:50:54.995Z,8.18
2019-03-01T01:53:22.872Z,8.17
2019-03-01T01:55:50.781Z,8.14
2019-03-01T01:58:18.667Z,8.14
2019-03-01T02:00:46.678Z,8.11
2019-03-01T02:03:14.651Z,8.06
2019-03-01T02:05:43.013Z,8.03
2019-03-01T02:08:10.954Z,8.02
2019-03-01T02:10:39.155Z,8.01
2019-03-01T02:13:06.994Z,7.98
2019-03-01T02:15:34.887Z,7.96
2019-03-01T02:18:03.222Z,7.93
2019-03-01T02:20:31.208Z,7.89
2019-03-01T02:22:59.257Z,7.86
2019-03-01T02:25:27.646Z,7.83
2019-03-01T02:27:55.555Z,7.80
2019-03-01T02:30:24.972Z,7.78
2019-03-01T02:32:52.865Z,7.76
2019-03-01T02:35:22.713Z,7.71
2019-03-01T02:37:50.752Z,7.67
2019-03-01T02:40:18.806Z,7.63
2019-03-01T02:42:46.863Z,7.61
2019-03-01T02:45:16.543Z,7.57
2019-03-01T02:47:44.487Z,7.54
2019-03-01T02:50:13.308Z,7.49
2019-03-01T02:52:41.304Z,7.46
2019-03-01T02:55:10.995Z,7.44
2019-03-01T02:57:38.917Z,7.41
2019-03-01T03:00:10.225Z,7.37
2019-03-01T03:02:44.181Z,7.35
2019-03-01T03:05:12.167Z,7.28
2019-03-01T03:08:11.631Z,7.26
2019-03-01T03:10:39.486Z,7.20
2019-03-01T03:13:08.996Z,7.19
2019-03-01T03:15:41.953Z,7.17
2019-03-01T03:18:09.873Z,7.16
2019-03-01T03:20:38.247Z,7.12
2019-03-01T03:23:06.395Z,7.09
2019-03-01T03:25:34.255Z,7.08
2019-03-01T03:28:02.174Z,7.03
2019-03-01T03:30:30.151Z,7.04
2019-03-01T03:32:58.168Z,7.03
2019-03-01T03:35:26.352Z,7.03
2019-03-01T03:37:54.276Z,7.02
2019-03-01T03:40:22.231Z,7.00
2019-03-01T03:42:50.230Z,7.00
2019-03-01T03:45:18.247Z,7.01
2019-03-01T03:47:46.298Z,7.02
2019-03-01T03:50:14.370Z,7.05
2019-03-01T03:52:42.352Z,7.05
2019-03-01T03:55:11.557Z,7.03
2019-03-01T03:57:39.556Z,7.03
2019-03-01T04:00:11.627Z,7.04
2019-03-01T04:02:39.649Z,7.05
2019-03-01T04:05:07.651Z,7.04
2019-03-01T04:07:36.084Z,7.04
2019-03-01T04:10:04.724Z,7.05
2019-03-01T04:12:32.652Z,7.07
2019-03-01T04:15:00.485Z,7.04
2019-03-01T04:17:28.568Z,7.04
2019-03-01T04:19:56.400Z,7.05
2019-03-01T04:22:24.157Z,7.05
2019-03-01T04:24:51.973Z,7.08
2019-03-01T04:27:19.725Z,7.06
2019-03-01T04:29:47.730Z,7.08
2019-03-01T04:32:16.288Z,7.09
2019-03-01T04:34:44.101Z,7.10
2019-03-01T04:37:11.878Z,7.03
2019-03-01T04:39:39.675Z,7.02
2019-03-01T04:42:07.444Z,6.99
2019-03-01T04:44:35.289Z,7.02
2019-03-01T04:47:03.260Z,7.03
2019-03-01T04:49:31.218Z,7.02
2019-03-01T04:51:59.160Z,7.03
2019-03-01T04:54:27.090Z,7.03
2019-03-01T04:56:54.857Z,7.03
2019-03-01T04:59:22.757Z,7.02
2019-03-01T05:01:50.524Z,7.03
2019-03-01T05:04:18.357Z,7.02
2019-03-01T05:06:52.564Z,7.00
2019-03-01T05:09:20.401Z,6.99
2019-03-01T05:11:48.180Z,7.01
2019-03-01T05:14:16.081Z,7.01
2019-03-01T05:16:43.983Z,7.01
2019-03-01T05:19:11.796Z,7.02
2019-03-01T05:21:39.585Z,7.01
2019-03-01T05:24:07.431Z,7.01
2019-03-01T05:26:35.221Z,6.98
2019-03-01T05:29:03.938Z,6.99
2019-03-01T05:31:32.293Z,6.98
2019-03-01T05:34:00.120Z,6.98
2019-03-01T05:36:27.906Z,7.00
2019-03-01T05:38:55.821Z,7.01
2019-03-01T05:41:23.708Z,7.02
2019-03-01T05:43:53.433Z,7.01
2019-03-01T05:46:21.272Z,7.00
2019-03-01T05:48:49.182Z,6.99
2019-03-01T05:51:21.058Z,6.97
2019-03-01T05:53:49.402Z,6.97
2019-03-01T05:56:17.196Z,7.01
2019-03-01T05:58:47.594Z,6.97
2019-03-01T06:01:55.194Z,6.97
2019-03-01T06:04:32.872Z,6.98
2019-03-01T06:07:17.467Z,6.97
2019-03-01T06:10:18.924Z,6.98
2019-03-01T06:13:09.520Z,6.99
2019-03-01T06:16:04.625Z,6.98
2019-03-01T06:19:05.701Z,7.00
2019-03-01T06:22:16.738Z,7.00
2019-03-01T06:24:55.683Z,6.99
2019-03-01T06:27:58.632Z,7.00
2019-03-01T06:31:01.890Z,6.98
2019-03-01T06:34:02.001Z,6.98
2019-03-01T06:36:59.163Z,6.96
2019-03-01T06:40:41.430Z,6.97
2019-03-01T06:43:22.454Z,6.95
2019-03-01T06:46:29.759Z,6.94
2019-03-01T06:49:16.974Z,6.93
2019-03-01T06:51:44.816Z,6.96
2019-03-01T06:54:12.847Z,6.98
2019-03-01T06:56:40.688Z,7.00
2019-03-01T06:59:08.453Z,6.98
2019-03-01T07:01:44.098Z,6.98
2019-03-01T07:04:15.742Z,6.99
2019-03-01T07:06:43.682Z,7.00
2019-03-01T07:09:11.685Z,7.01
2019-03-01T07:11:39.644Z,7.04
2019-03-01T07:14:07.428Z,7.04
2019-03-01T07:16:36.073Z,7.04
2019-03-01T07:19:04.067Z,7.06
2019-03-01T07:21:32.011Z,7.09
2019-03-01T07:23:59.804Z,7.12
2019-03-01T07:26:27.621Z,7.14
2019-03-01T07:28:55.660Z,7.17
2019-03-01T07:31:23.613Z,7.18
2019-03-01T07:33:51.431Z,7.21
2019-03-01T07:36:19.287Z,7.51
2019-03-01T07:38:47.203Z,7.56
2019-03-01T07:41:15.760Z,7.55
2019-03-01T07:43:43.607Z,7.53
2019-03-01T07:46:11.490Z,7.48
2019-03-01T07:48:39.336Z,7.48
2019-03-01T07:51:07.238Z,7.49
2019-03-01T07:53:41.748Z,7.47
2019-03-01T07:56:06.888Z,7.47
2019-03-01T07:58:34.727Z,7.47
2019-03-01T08:01:02.816Z,7.48
2019-03-01T08:03:30.718Z,7.50
2019-03-01T08:05:58.600Z,7.52
2019-03-01T08:08:26.461Z,7.52
2019-03-01T08:10:56.567Z,7.53
2019-03-01T08:13:27.022Z,7.52
2019-03-01T08:15:54.973Z,7.53
2019-03-01T08:18:22.945Z,7.49
2019-03-01T08:20:50.744Z,7.46
2019-03-01T08:23:18.800Z,7.46
2019-03-01T08:25:46.582Z,7.45
2019-03-01T08:28:14.522Z,7.45
2019-03-01T08:30:45.760Z,7.35
2019-03-01T08:33:13.243Z,7.28
2019-03-01T08:35:41.024Z,7.33
2019-03-01T08:38:08.969Z,7.36
2019-03-01T08:40:37.325Z,7.41
2019-03-01T08:43:11.750Z,7.38
2019-03-01T08:45:35.219Z,7.33
2019-03-01T08:48:03.197Z,7.78
2019-03-01T08:50:31.163Z,7.87
2019-03-01T08:53:03.257Z,7.81
2019-03-01T08:55:31.842Z,7.75
2019-03-01T08:58:03.430Z,7.68
2019-03-01T09:00:31.003Z,7.65
2019-03-01T09:03:02.608Z,7.60
2019-03-01T09:05:30.509Z,7.56
2019-03-01T09:07:58.543Z,7.58
2019-03-01T09:10:29.193Z,7.54
2019-03-01T09:12:56.120Z,7.53
2019-03-01T09:15:24.089Z,7.48
2019-03-01T09:17:51.910Z,7.47
2019-03-01T09:20:19.660Z,7.54
2019-03-01T09:22:47.896Z,7.52
2019-03-01T09:25:16.558Z,7.50
2019-03-01T09:27:44.403Z,7.48
2019-03-01T09:30:16.033Z,7.50
2019-03-01T09:32:43.979Z,7.51
2019-03-01T09:35:31.379Z,7.47
2019-03-01T09:37:59.604Z,7.48
2019-03-01T09:40:28.873Z,7.46
2019-03-01T09:42:57.394Z,7.46
2019-03-01T09:45:25.335Z,7.45
2019-03-01T09:47:53.299Z,7.45
2019-03-01T09:50:21.343Z,7.45
2019-03-01T09:52:49.141Z,7.41
2019-03-01T09:55:17.255Z,7.36
2019-03-01T09:57:45.219Z,7.36
2019-03-01T10:00:13.914Z,7.34
2019-03-01T10:02:41.805Z,7.36
2019-03-01T10:05:11.316Z,7.36
2019-03-01T10:07:39.203Z,7.66
2019-03-01T10:10:09.341Z,9.07
2019-03-01T10:12:37.106Z,10.03
2019-03-01T10:15:06.255Z,10.70
2019-03-01T10:17:34.846Z,11.21
2019-03-01T10:20:03.375Z,11.50
2019-03-01T10:22:31.312Z,11.85
2019-03-01T10:24:59.248Z,11.96
2019-03-01T10:27:27.037Z,12.01
2019-03-01T10:29:54.930Z,12.11
2019-03-01T10:32:22.748Z,12.24
2019-03-01T10:34:50.583Z,12.31
2019-03-01T10:37:18.434Z,12.43
2019-03-01T10:39:52.800Z,12.51
2019-03-01T10:42:16.046Z,12.59
2019-03-01T10:44:43.995Z,12.66
2019-03-01T10:47:11.853Z,12.75
2019-03-01T10:49:39.784Z,12.83
2019-03-01T10:52:07.652Z,12.86
2019-03-01T10:54:35.536Z,12.89
2019-03-01T10:57:03.488Z,12.88
2019-03-01T10:59:31.337Z,12.87
2019-03-01T11:01:59.186Z,12.89
2019-03-01T11:04:27.132Z,12.86
2019-03-01T11:06:55.898Z,12.95
2019-03-01T11:09:23.719Z,12.89
2019-03-01T11:11:51.664Z,12.31
2019-03-01T11:14:19.608Z,11.64
2019-03-01T11:16:47.467Z,11.16
2019-03-01T11:19:15.283Z,10.64
2019-03-01T11:21:43.953Z,10.30
2019-03-01T11:24:11.750Z,9.96
2019-03-01T11:26:39.610Z,9.75
2019-03-01T11:29:07.474Z,9.44
2019-03-01T11:31:35.672Z,9.24
2019-03-01T11:34:03.665Z,9.08
2019-03-01T11:36:31.464Z,9.01
2019-03-01T11:38:59.239Z,8.97
2019-03-01T11:41:27.168Z,8.83
2019-03-01T11:43:54.924Z,8.73
2019-03-01T11:46:23.001Z,8.61
2019-03-01T11:48:51.445Z,8.55
2019-03-01T11:51:25.439Z,8.54
2019-03-01T11:53:53.268Z,8.46
2019-03-01T11:56:21.157Z,8.42
2019-03-01T11:58:49.013Z,8.42
2019-03-01T12:01:17.590Z,8.41
2019-03-01T12:03:45.603Z,8.39
2019-03-01T12:06:13.514Z,8.37
2019-03-01T12:08:41.391Z,8.27
2019-03-01T12:11:10.190Z,8.25
2019-03-01T12:13:37.986Z,8.22
2019-03-01T12:16:05.913Z,8.23
2019-03-01T12:18:33.783Z,8.14
2019-03-01T12:21:01.592Z,8.07
2019-03-01T12:23:29.348Z,8.03
2019-03-01T12:25:57.212Z,8.04
2019-03-01T12:28:24.992Z,8.04
2019-03-01T12:30:52.941Z,7.94
2019-03-01T12:33:21.792Z,7.89
2019-03-01T12:35:50.497Z,7.90
2019-03-01T12:38:18.288Z,7.91
2019-03-01T12:40:46.299Z,7.89
2019-03-01T12:43:14.291Z,7.85
2019-03-01T12:45:42.703Z,7.81
2019-03-01T12:48:11.373Z,7.77
2019-03-01T12:50:39.190Z,7.74
2019-03-01T12:53:06.984Z,7.74
2019-03-01T12:55:34.964Z,7.76
2019-03-01T12:58:02.853Z,7.76
2019-03-01T13:00:30.937Z,7.75
2019-03-01T13:02:58.783Z,7.74
2019-03-01T13:05:29.118Z,7.75
2019-03-01T13:07:56.397Z,7.77
2019-03-01T13:10:25.824Z,7.78
2019-03-01T13:12:54.651Z,7.78
2019-03-01T13:15:22.853Z,7.76
2019-03-01T13:17:50.889Z,7.77
2019-03-01T13:20:18.737Z,7.78
2019-03-01T13:22:46.746Z,7.78
2019-03-01T13:25:15.745Z,7.76
2019-03-01T13:27:44.286Z,7.69
2019-03-01T13:30:17.018Z,7.67
2019-03-01T13:32:45.106Z,7.72
2019-03-01T13:35:13.479Z,7.67
2019-03-01T13:37:41.541Z,7.61
2019-03-01T13:40:11.780Z,7.57
2019-03-01T13:42:39.727Z,7.54
2019-03-01T13:45:11.858Z,7.57
2019-03-01T13:47:40.667Z,7.56
2019-03-01T13:50:09.908Z,7.51
2019-03-01T13:52:37.862Z,7.47
2019-03-01T13:55:06.140Z,7.46
2019-03-01T13:57:37.331Z,7.48
2019-03-01T14:00:06.111Z,7.44
2019-03-01T14:02:34.028Z,7.43
2019-03-01T14:05:01.901Z,7.42
2019-03-01T14:07:29.866Z,7.39
2019-03-01T14:10:00.880Z,7.39
2019-03-01T14:12:27.360Z,7.37
2019-03-01T14:14:55.166Z,7.38
2019-03-01T14:17:24.600Z,7.38
2019-03-01T14:19:53.234Z,7.37
2019-03-01T14:22:21.178Z,7.41
2019-03-01T14:24:48.961Z,7.43
2019-03-01T14:27:16.913Z,7.39
2019-03-01T14:29:44.706Z,7.36
2019-03-01T14:32:15.301Z,7.36
2019-03-01T14:34:47.720Z,7.35
2019-03-01T14:37:15.106Z,7.36
2019-03-01T14:39:45.391Z,7.40
2019-03-01T14:42:11.840Z,7.41
2019-03-01T14:44:39.633Z,7.46
2019-03-01T14:47:07.683Z,7.42
2019-03-01T14:49:35.564Z,7.40
2019-03-01T14:52:03.599Z,7.38
2019-03-01T14:54:31.481Z,7.42
2019-03-01T14:57:10.688Z,7.06
2019-03-01T15:00:14.183Z,7.05
2019-03-01T15:03:15.919Z,7.14
2019-03-01T15:05:42.026Z,7.13
2019-03-01T15:08:10.126Z,7.05
2019-03-01T15:10:38.015Z,7.08
2019-03-01T15:13:05.944Z,7.11
2019-03-01T15:15:33.937Z,7.10
2019-03-01T15:18:01.977Z,7.09
2019-03-01T15:20:30.643Z,7.11
2019-03-01T15:22:58.486Z,7.12
2019-03-01T15:25:26.386Z,7.12
2019-03-01T15:27:55.510Z,7.08
2019-03-01T15:30:23.387Z,7.08
2019-03-01T15:32:52.574Z,7.11
2019-03-01T15:35:20.575Z,7.11
2019-03-01T15:37:48.519Z,7.10
2019-03-01T15:40:16.590Z,7.11
2019-03-01T15:42:44.375Z,7.12
2019-03-01T15:45:12.616Z,7.10
2019-03-01T15:47:40.439Z,7.12
2019-03-01T15:50:09.044Z,7.13
2019-03-01T15:52:36.916Z,7.11
2019-03-01T15:55:07.726Z,7.09
2019-03-01T15:57:35.664Z,7.10
2019-03-01T16:00:04.424Z,7.11
2019-03-01T16:02:32.272Z,7.11
2019-03-01T16:05:00.345Z,7.14
2019-03-01T16:07:29.011Z,7.16
2019-03-01T16:10:01.100Z,7.18
2019-03-01T16:12:29.000Z,7.18
2019-03-01T16:15:00.570Z,7.13
2019-03-01T16:17:28.528Z,7.14
2019-03-01T16:19:56.452Z,7.10
2019-03-01T16:22:24.340Z,7.07
2019-03-01T16:24:52.194Z,7.08
2019-03-01T16:27:20.311Z,7.06
2019-03-01T16:29:49.102Z,7.03
2019-03-01T16:32:16.965Z,7.01
2019-03-01T16:34:44.887Z,7.00
2019-03-01T16:37:12.789Z,7.01
2019-03-01T16:39:40.636Z,6.99
2019-03-01T16:42:08.733Z,7.00
2019-03-01T16:44:36.598Z,7.00
2019-03-01T16:47:06.695Z,6.96
2019-03-01T16:49:34.296Z,6.96
2019-03-01T16:52:02.279Z,6.94
2019-03-01T16:54:30.158Z,6.95
2019-03-01T16:56:58.024Z,6.90
2019-03-01T16:59:25.849Z,6.89
2019-03-01T17:01:53.631Z,6.91
2019-03-01T17:04:32.647Z,6.85
2019-03-01T17:07:01.020Z,6.82
2019-03-01T17:09:28.836Z,6.79
2019-03-01T17:11:56.726Z,6.78
2019-03-01T17:14:24.645Z,6.79
2019-03-01T17:16:52.408Z,6.78
2019-03-01T17:19:23.444Z,6.74
2019-03-01T17:21:51.785Z,6.75
2019-03-01T17:24:19.762Z,6.74
2019-03-01T17:26:47.574Z,6.72
2019-03-01T17:29:15.498Z,6.70
2019-03-01T17:31:43.398Z,6.68
2019-03-01T17:34:11.395Z,6.65
2019-03-01T17:36:40.075Z,6.66
2019-03-01T17:39:08.140Z,6.65
2019-03-01T17:41:36.004Z,6.66
2019-03-01T17:44:08.189Z,6.62
2019-03-01T17:46:35.449Z,6.61
2019-03-01T17:49:03.352Z,6.60
2019-03-01T17:51:31.186Z,6.56
2019-03-01T17:53:59.065Z,6.58
2019-03-01T17:56:27.096Z,6.60
2019-03-01T17:58:55.952Z,6.57
2019-03-01T18:01:23.895Z,6.57
2019-03-01T18:03:51.803Z,6.59
2019-03-01T18:06:22.216Z,6.61
2019-03-01T18:08:50.208Z,6.62
2019-03-01T18:11:18.166Z,6.64
2019-03-01T18:13:46.059Z,6.65
2019-03-01T18:16:13.888Z,6.65
2019-03-01T18:18:42.660Z,6.65
2019-03-01T18:21:13.070Z,6.64
2019-03-01T18:23:40.223Z,6.64
2019-03-01T18:26:08.212Z,6.66
2019-03-01T18:28:36.020Z,6.66
2019-03-01T18:31:04.066Z,6.69
2019-03-01T18:33:31.958Z,6.68
2019-03-01T18:35:59.841Z,6.66
2019-03-01T18:38:31.313Z,6.67
2019-03-01T18:40:57.692Z,6.68
2019-03-01T18:43:25.583Z,6.69
2019-03-01T18:45:54.095Z,6.68
2019-03-01T18:48:21.971Z,6.69
2019-03-01T18:50:49.789Z,6.68
2019-03-01T18:53:18.384Z,6.66
2019-03-01T18:55:46.300Z,6.68
2019-03-01T18:58:14.968Z,6.68
2019-03-01T19:00:43.407Z,6.67
2019-03-01T19:03:11.227Z,6.63
2019-03-01T19:05:40.024Z,6.64
2019-03-01T19:08:11.706Z,6.68
2019-03-01T19:10:40.560Z,6.67
2019-03-01T19:13:08.566Z,6.65
2019-03-01T19:15:36.528Z,6.63
2019-03-01T19:18:04.573Z,6.63
2019-03-01T19:20:32.805Z,6.60
2019-03-01T19:23:00.873Z,6.58
2019-03-01T19:25:28.850Z,6.61
2019-03-01T19:27:57.501Z,7.83
2019-03-01T19:30:25.502Z,8.80
2019-03-01T19:32:53.513Z,9.50
2019-03-01T19:35:28.308Z,10.16
2019-03-01T19:37:51.308Z,10.60
2019-03-01T19:40:19.215Z,10.81
2019-03-01T19:42:47.266Z,10.59
2019-03-01T19:45:15.872Z,9.90
2019-03-01T19:47:43.903Z,9.28
2019-03-01T19:50:14.136Z,8.73
2019-03-01T19:52:43.396Z,8.37
2019-03-01T19:55:12.701Z,7.98
2019-03-01T19:57:40.742Z,7.71
2019-03-01T20:00:12.047Z,7.49
2019-03-01T20:02:40.719Z,7.29
2019-03-01T20:05:10.751Z,7.13
2019-03-01T20:07:39.007Z,7.01
2019-03-01T20:10:08.406Z,6.87
2019-03-01T20:12:40.500Z,6.73
2019-03-01T20:15:11.250Z,6.58
2019-03-01T20:17:44.405Z,6.93
2019-03-01T20:20:11.244Z,6.96
2019-03-01T20:22:39.256Z,6.76
2019-03-01T20:25:09.198Z,6.60
2019-03-01T20:27:39.070Z,6.46
2019-03-01T20:30:11.157Z,6.33
2019-03-01T20:32:39.431Z,6.23
2019-03-01T20:35:09.678Z,6.12
2019-03-01T20:37:39.941Z,6.06
2019-03-01T20:40:09.806Z,5.96
2019-03-01T20:42:37.716Z,5.88
2019-03-01T20:45:09.134Z,5.82
2019-03-01T20:47:37.159Z,5.75
2019-03-01T20:50:05.398Z,5.69
2019-03-01T20:52:34.813Z,5.64
2019-03-01T20:55:03.240Z,5.55
2019-03-01T20:57:31.193Z,5.51
2019-03-01T20:59:59.186Z,5.46
2019-03-01T21:02:27.149Z,5.42
2019-03-01T21:04:55.066Z,5.38
2019-03-01T21:07:22.930Z,5.35
2019-03-01T21:09:50.798Z,5.29
2019-03-01T21:12:18.730Z,5.25
2019-03-01T21:14:46.637Z,5.21
2019-03-01T21:17:16.855Z,5.15
2019-03-01T21:19:44.629Z,5.09
2019-03-01T21:22:12.721Z,5.06
2019-03-01T21:24:42.522Z,5.01
2019-03-01T21:27:10.777Z,4.95
2019-03-01T21:29:38.685Z,4.90
2019-03-01T21:32:06.570Z,4.83
2019-03-01T21:34:34.873Z,4.79
2019-03-01T21:37:04.190Z,4.74
2019-03-01T21:39:32.111Z,4.70
2019-03-01T21:41:59.897Z,4.69
2019-03-01T21:44:27.828Z,4.64
2019-03-01T21:46:55.634Z,4.61
2019-03-01T21:49:23.510Z,4.56
2019-03-01T21:51:51.738Z,4.52
2019-03-01T21:54:21.150Z,4.49
2019-03-01T21:56:55.977Z,4.44
2019-03-01T21:59:18.883Z,4.39
2019-03-01T22:01:46.627Z,4.36
2019-03-01T22:04:14.430Z,4.32
2019-03-01T22:06:42.304Z,4.29
2019-03-01T22:09:11.141Z,4.27
2019-03-01T22:11:38.886Z,4.20
2019-03-01T22:14:07.588Z,4.16
2019-03-01T22:16:39.295Z,4.12
2019-03-01T22:19:07.244Z,4.05
2019-03-01T22:21:35.118Z,4.02
2019-03-01T22:24:03.029Z,3.96
2019-03-01T22:26:30.989Z,3.92
2019-03-01T22:28:58.806Z,3.85
2019-03-01T22:31:26.585Z,3.85
2019-03-01T22:33:55.864Z,3.80
2019-03-01T22:36:24.237Z,3.75
2019-03-01T22:38:52.059Z,3.70
2019-03-01T22:41:19.842Z,3.70
2019-03-01T22:43:47.727Z,3.68
2019-03-01T22:46:15.450Z,3.64
2019-03-01T22:48:47.043Z,3.62
2019-03-01T22:51:14.566Z,3.58
2019-03-01T22:53:43.742Z,3.55
2019-03-01T22:56:12.059Z,3.53
2019-03-01T22:58:40.822Z,3.50
2019-03-01T23:01:22.178Z,3.47
2019-03-01T23:03:58.521Z,3.45
2019-03-01T23:06:26.473Z,3.41
2019-03-01T23:08:54.764Z,3.39
2019-03-01T23:11:22.507Z,3.34
2019-03-01T23:13:52.797Z,3.31
2019-03-01T23:16:23.638Z,3.28
2019-03-01T23:18:56.750Z,3.27
2019-03-01T23:21:21.546Z,3.27
2019-03-01T23:23:50.089Z,3.25
2019-03-01T23:26:18.607Z,3.20
2019-03-01T23:28:47.609Z,3.15
2019-03-01T23:31:15.492Z,3.14
2019-03-01T23:33:43.291Z,3.10
2019-03-01T23:36:11.902Z,3.11
2019-03-01T23:38:40.355Z,3.08
2019-03-01T23:41:11.398Z,3.05
2019-03-01T23:43:38.242Z,3.04
2019-03-01T23:46:06.288Z,3.03
2019-03-01T23:48:34.319Z,3.00
2019-03-01T23:51:02.228Z,2.98
2019-03-01T23:53:30.831Z,2.92
2019-03-01T23:55:59.888Z,2.90
2019-03-01T23:58:27.741Z,2.85
